createdAt,value
2023-03-04T00:00:31.800Z,3.69
2023-03-04T00:03:33.367Z,3.71
2023-03-04T00:06:34.934Z,3.70
2023-03-04T00:09:36.817Z,3.71
2023-03-04T00:12:38.528Z,3.71
2023-03-04T00:15:40.254Z,3.71
2023-03-04T00:18:41.874Z,3.72
2023-03-04T00:21:43.516Z,3.73
2023-03-04T00:24:45.051Z,3.73
2023-03-04T00:27:47.314Z,3.71
2023-03-04T00:30:48.970Z,3.70
2023-03-04T00:33:50.578Z,3.70
2023-03-04T00:36:52.143Z,3.71
2023-03-04T00:39:53.752Z,3.71
2023-03-04T00:42:55.306Z,3.72
2023-03-04T00:45:56.904Z,3.71
2023-03-04T00:48:58.526Z,3.70
2023-03-04T00:52:00.082Z,3.70
2023-03-04T00:55:01.621Z,3.71
2023-03-04T00:58:03.534Z,3.73
2023-03-04T01:01:05.301Z,3.72
2023-03-04T01:04:06.921Z,3.71
2023-03-04T01:07:08.918Z,3.71
2023-03-04T01:10:12.347Z,3.71
2023-03-04T01:13:13.900Z,3.72
2023-03-04T01:16:15.477Z,3.71
2023-03-04T01:19:17.151Z,3.71
2023-03-04T01:22:19.159Z,3.70
2023-03-04T01:25:20.726Z,3.70
2023-03-04T01:28:22.274Z,3.70
2023-03-04T01:31:23.940Z,3.70
2023-03-04T01:34:25.475Z,3.70
2023-03-04T01:37:27.015Z,3.70
2023-03-04T01:40:28.674Z,3.69
2023-03-04T01:43:31.418Z,3.68
2023-03-04T01:46:33.206Z,3.68
2023-03-04T01:49:34.900Z,3.68
2023-03-04T01:52:38.423Z,3.68
2023-03-04T01:55:40.024Z,3.69
2023-03-04T01:58:41.724Z,3.70
2023-03-04T02:01:46.874Z,3.71
2023-03-04T02:04:49.048Z,3.70
2023-03-04T02:07:53.233Z,3.72
2023-03-04T02:10:55.358Z,3.72
2023-03-04T02:13:57.098Z,3.74
2023-03-04T02:16:58.963Z,3.74
2023-03-04T02:20:22.168Z,3.73
2023-03-04T02:23:35.427Z,3.73
2023-03-04T02:26:37.478Z,3.74
2023-03-04T02:29:39.291Z,3.72
2023-03-04T02:32:40.981Z,3.72
2023-03-04T02:35:42.640Z,3.72
2023-03-04T02:38:44.330Z,3.71
2023-03-04T02:41:50.010Z,3.71
2023-03-04T02:45:00.866Z,3.72
2023-03-04T02:48:02.887Z,3.71
2023-03-04T02:51:04.814Z,3.71
2023-03-04T02:54:18.555Z,3.73
2023-03-04T02:57:20.433Z,3.72
2023-03-04T03:00:22.046Z,3.72
2023-03-04T03:03:23.623Z,3.71
2023-03-04T03:06:25.390Z,3.71
2023-03-04T03:09:26.952Z,3.72
2023-03-04T03:12:28.513Z,3.73
2023-03-04T03:15:30.150Z,3.74
2023-03-04T03:18:31.750Z,3.74
2023-03-04T03:21:33.379Z,3.76
2023-03-04T03:24:34.997Z,3.76
2023-03-04T03:27:36.587Z,3.76
2023-03-04T03:30:38.284Z,3.76
2023-03-04T03:33:39.844Z,3.73
2023-03-04T03:36:41.455Z,3.73
2023-03-04T03:39:43.037Z,3.71
2023-03-04T03:42:44.611Z,3.70
2023-03-04T03:45:46.339Z,3.69
2023-03-04T03:48:47.925Z,3.69
2023-03-04T03:51:49.583Z,3.67
2023-03-04T03:54:51.146Z,3.67
2023-03-04T03:57:52.900Z,3.66
2023-03-04T04:00:56.486Z,3.64
2023-03-04T04:04:00.432Z,3.62
2023-03-04T04:07:02.009Z,3.61
2023-03-04T04:10:05.412Z,3.62
2023-03-04T04:13:06.962Z,3.62
2023-03-04T04:16:10.281Z,3.61
2023-03-04T04:19:19.944Z,3.60
2023-03-04T04:22:21.721Z,3.58
2023-03-04T04:25:23.359Z,3.57
2023-03-04T04:28:25.149Z,3.56
2023-03-04T04:31:26.734Z,3.55
2023-03-04T04:34:28.336Z,3.54
2023-03-04T04:37:29.983Z,3.54
2023-03-04T04:40:31.592Z,3.53
2023-03-04T04:43:33.172Z,3.54
2023-03-04T04:46:35.187Z,3.53
2023-03-04T04:49:37.040Z,3.52
2023-03-04T04:52:38.646Z,3.52
2023-03-04T04:55:40.344Z,3.51
2023-03-04T04:58:43.042Z,3.51
2023-03-04T05:01:44.664Z,3.50
2023-03-04T05:04:46.417Z,3.49
2023-03-04T05:07:47.965Z,3.48
2023-03-04T05:10:49.549Z,3.47
2023-03-04T05:13:51.586Z,3.46
2023-03-04T05:16:53.227Z,3.43
2023-03-04T05:19:54.752Z,3.44
2023-03-04T05:22:56.343Z,3.44
2023-03-04T05:25:57.885Z,3.45
2023-03-04T05:28:59.434Z,3.45
2023-03-04T05:32:01.016Z,3.45
2023-03-04T05:35:02.622Z,3.44
2023-03-04T05:38:06.314Z,3.42
2023-03-04T05:41:08.505Z,3.42
2023-03-04T05:44:10.070Z,3.41
2023-03-04T05:47:11.590Z,3.41
2023-03-04T05:50:13.162Z,3.41
2023-03-04T05:53:14.824Z,3.41
2023-03-04T05:56:18.778Z,3.43
2023-03-04T05:59:20.906Z,3.43
2023-03-04T06:02:22.623Z,3.42
2023-03-04T06:05:24.213Z,3.41
2023-03-04T06:08:26.379Z,3.41
2023-03-04T06:11:27.923Z,3.40
2023-03-04T06:14:29.556Z,3.39
2023-03-04T06:17:31.126Z,3.39
2023-03-04T06:20:32.780Z,3.38
2023-03-04T06:23:34.319Z,3.38
2023-03-04T06:26:35.932Z,3.38
2023-03-04T06:29:37.458Z,3.36
2023-03-04T06:32:39.052Z,3.38
2023-03-04T06:35:40.611Z,3.37
2023-03-04T06:38:42.240Z,3.37
2023-03-04T06:41:43.814Z,3.38
2023-03-04T06:44:45.409Z,3.39
2023-03-04T06:47:46.981Z,3.38
2023-03-04T06:50:48.654Z,3.41
2023-03-04T06:53:50.365Z,3.39
2023-03-04T06:56:52.067Z,3.39
2023-03-04T06:59:53.956Z,3.41
2023-03-04T07:02:55.534Z,3.40
2023-03-04T07:05:57.102Z,3.40
2023-03-04T07:08:58.917Z,3.39
2023-03-04T07:12:00.532Z,3.37
2023-03-04T07:15:02.618Z,3.36
2023-03-04T07:18:04.197Z,3.38
2023-03-04T07:21:06.864Z,3.39
2023-03-04T07:24:08.545Z,3.40
2023-03-04T07:27:10.198Z,3.40
2023-03-04T07:30:12.230Z,3.41
2023-03-04T07:33:14.537Z,3.40
2023-03-04T07:36:16.458Z,3.41
2023-03-04T07:39:18.040Z,3.40
2023-03-04T07:42:19.597Z,3.40
2023-03-04T07:45:22.514Z,3.41
2023-03-04T07:48:24.091Z,3.42
2023-03-04T07:51:27.036Z,3.43
2023-03-04T07:54:28.576Z,3.41
2023-03-04T07:57:30.152Z,3.41
2023-03-04T08:00:31.748Z,3.41
2023-03-04T08:03:33.353Z,3.39
2023-03-04T08:06:35.433Z,3.38
2023-03-04T08:09:36.957Z,3.37
2023-03-04T08:12:38.521Z,3.36
2023-03-04T08:15:42.384Z,3.36
2023-03-04T08:18:46.331Z,3.38
2023-03-04T08:21:47.893Z,3.38
2023-03-04T08:24:49.444Z,3.38
2023-03-04T08:27:51.024Z,3.39
2023-03-04T08:30:54.439Z,3.41
2023-03-04T08:33:56.655Z,3.38
2023-03-04T08:36:58.257Z,3.35
2023-03-04T08:39:59.801Z,3.36
2023-03-04T08:43:01.316Z,3.35
2023-03-04T08:46:03.735Z,3.39
2023-03-04T08:49:05.938Z,3.67
2023-03-04T08:52:07.593Z,3.73
2023-03-04T08:55:09.291Z,3.71
2023-03-04T08:58:11.553Z,3.69
2023-03-04T09:01:14.431Z,3.67
2023-03-04T09:04:16.015Z,3.62
2023-03-04T09:07:18.138Z,3.57
2023-03-04T09:10:20.189Z,3.55
2023-03-04T09:13:26.070Z,3.52
2023-03-04T09:16:28.052Z,3.47
2023-03-04T09:19:29.891Z,3.43
2023-03-04T09:22:31.571Z,3.40
2023-03-04T09:25:33.336Z,3.38
2023-03-04T09:28:34.836Z,3.39
2023-03-04T09:31:36.479Z,3.42
2023-03-04T09:34:39.872Z,3.42
2023-03-04T09:37:41.914Z,3.44
2023-03-04T09:40:46.874Z,3.46
2023-03-04T09:43:50.339Z,3.47
2023-03-04T09:46:52.967Z,3.48
2023-03-04T09:50:07.169Z,3.51
2023-03-04T09:53:14.555Z,3.55
2023-03-04T09:56:16.304Z,3.54
2023-03-04T09:59:17.814Z,3.52
2023-03-04T10:02:44.051Z,3.48
2023-03-04T10:06:04.539Z,3.42
2023-03-04T10:09:28.344Z,3.38
2023-03-04T10:12:34.376Z,3.42
2023-03-04T10:15:44.152Z,3.51
2023-03-04T10:19:14.263Z,3.66
2023-03-04T10:22:42.289Z,3.80
2023-03-04T10:25:46.835Z,3.88
2023-03-04T10:28:49.507Z,3.87
2023-03-04T10:31:51.994Z,3.86
2023-03-04T10:34:53.607Z,3.95
2023-03-04T10:37:55.284Z,4.34
2023-03-04T10:40:58.757Z,4.50
2023-03-04T10:44:02.459Z,4.49
2023-03-04T10:47:10.494Z,4.42
2023-03-04T10:50:22.677Z,4.35
2023-03-04T10:53:35.978Z,4.34
2023-03-04T10:56:45.753Z,4.36
2023-03-04T10:59:50.540Z,4.37
2023-03-04T11:02:52.233Z,4.37
2023-03-04T11:06:15.700Z,4.38
2023-03-04T11:09:31.559Z,4.37
2023-03-04T11:12:35.260Z,4.35
2023-03-04T11:16:04.542Z,4.32
2023-03-04T11:19:14.659Z,4.29
2023-03-04T11:22:18.471Z,4.32
2023-03-04T11:25:31.141Z,4.41
2023-03-04T11:28:48.225Z,4.53
2023-03-04T11:31:55.606Z,4.58
2023-03-04T11:35:16.600Z,4.57
2023-03-04T11:38:27.135Z,4.53
2023-03-04T11:41:39.511Z,4.42
2023-03-04T11:44:41.680Z,4.29
2023-03-04T11:48:00.319Z,4.20
2023-03-04T11:51:12.998Z,4.13
2023-03-04T11:54:25.821Z,4.08
2023-03-04T11:57:39.628Z,4.09
2023-03-04T12:01:04.578Z,4.10
2023-03-04T12:04:22.279Z,4.10
2023-03-04T12:07:48.776Z,4.11
2023-03-04T12:11:02.071Z,4.14
2023-03-04T12:14:06.572Z,4.18
2023-03-04T12:17:29.597Z,4.22
2023-03-04T12:20:56.265Z,4.25
2023-03-04T12:24:10.051Z,4.26
2023-03-04T12:27:27.019Z,4.26
2023-03-04T12:30:46.880Z,4.23
2023-03-04T12:34:04.810Z,4.19
2023-03-04T12:37:35.930Z,4.13
2023-03-04T12:40:45.202Z,4.10
2023-03-04T12:43:58.081Z,4.09
2023-03-04T12:47:12.943Z,4.07
2023-03-04T12:50:29.475Z,4.08
2023-03-04T12:53:36.186Z,4.11
2023-03-04T12:56:44.311Z,4.10
2023-03-04T12:59:59.827Z,4.10
2023-03-04T13:03:51.867Z,4.06
2023-03-04T13:07:17.058Z,4.03
2023-03-04T13:10:23.722Z,4.03
2023-03-04T13:13:37.430Z,4.06
2023-03-04T13:16:50.752Z,4.06
2023-03-04T13:20:18.535Z,4.03
2023-03-04T13:23:29.495Z,4.00
2023-03-04T13:26:34.793Z,3.98
2023-03-04T13:29:37.294Z,3.94
2023-03-04T13:32:38.937Z,3.92
2023-03-04T13:35:46.928Z,3.93
2023-03-04T13:39:00.591Z,3.94
2023-03-04T13:42:03.338Z,3.99
2023-03-04T13:45:05.863Z,4.03
2023-03-04T13:48:31.748Z,4.05
2023-03-04T13:51:44.095Z,4.06
2023-03-04T13:54:45.840Z,4.07
2023-03-04T13:57:51.633Z,4.07
2023-03-04T14:00:55.274Z,4.06
2023-03-04T14:03:56.904Z,4.03
2023-03-04T14:07:00.486Z,3.96
2023-03-04T14:10:15.025Z,3.83
2023-03-04T14:13:16.643Z,3.70
2023-03-04T14:16:23.938Z,3.61
2023-03-04T14:19:32.427Z,3.55
2023-03-04T14:22:39.924Z,3.51
2023-03-04T14:25:41.461Z,3.49
2023-03-04T14:28:51.678Z,3.46
2023-03-04T14:31:54.487Z,3.46
2023-03-04T14:35:06.508Z,3.48
2023-03-04T14:38:23.215Z,3.49
2023-03-04T14:41:30.772Z,3.49
2023-03-04T14:44:40.683Z,3.48
2023-03-04T14:47:47.394Z,3.47
2023-03-04T14:50:53.548Z,3.43
2023-03-04T14:53:56.719Z,3.39
2023-03-04T14:57:00.807Z,3.36
2023-03-04T15:00:41.049Z,3.33
2023-03-04T15:03:52.888Z,3.26
2023-03-04T15:06:54.604Z,3.18
2023-03-04T15:09:56.468Z,3.47
2023-03-04T15:13:01.601Z,3.93
2023-03-04T15:16:03.429Z,4.21
2023-03-04T15:19:23.480Z,4.21
2023-03-04T15:22:25.139Z,4.09
2023-03-04T15:25:27.279Z,4.00
2023-03-04T15:28:37.629Z,3.90
2023-03-04T15:31:39.176Z,3.80
2023-03-04T15:34:40.714Z,3.71
2023-03-04T15:37:43.198Z,3.61
2023-03-04T15:40:44.778Z,3.49
2023-03-04T15:43:46.300Z,3.41
2023-03-04T15:46:47.854Z,3.32
2023-03-04T15:49:49.932Z,3.27
2023-03-04T15:52:52.394Z,3.23
2023-03-04T15:55:54.317Z,3.18
2023-03-04T15:59:25.229Z,3.14
2023-03-04T16:02:30.723Z,3.10
2023-03-04T16:05:36.829Z,3.02
2023-03-04T16:08:39.842Z,2.95
2023-03-04T16:11:45.506Z,2.90
2023-03-04T16:14:47.103Z,2.87
2023-03-04T16:17:48.885Z,2.83
2023-03-04T16:20:51.450Z,2.84
2023-03-04T16:23:54.644Z,2.81
2023-03-04T16:26:56.220Z,2.78
2023-03-04T16:29:57.843Z,2.76
2023-03-04T16:32:59.417Z,2.74
2023-03-04T16:36:01.168Z,2.72
2023-03-04T16:39:07.913Z,2.72
2023-03-04T16:42:15.874Z,2.69
2023-03-04T16:45:26.205Z,2.65
2023-03-04T16:48:27.792Z,2.63
2023-03-04T16:51:30.586Z,2.62
2023-03-04T16:54:34.683Z,2.77
2023-03-04T16:57:36.302Z,2.78
2023-03-04T17:00:37.921Z,2.77
2023-03-04T17:03:39.450Z,2.73
2023-03-04T17:06:41.216Z,2.68
2023-03-04T17:09:43.129Z,2.64
2023-03-04T17:12:44.860Z,2.61
2023-03-04T17:15:46.988Z,2.58
2023-03-04T17:18:49.532Z,2.58
2023-03-04T17:21:51.123Z,2.58
2023-03-04T17:24:52.664Z,2.54
2023-03-04T17:27:54.234Z,2.56
2023-03-04T17:30:55.838Z,2.55
2023-03-04T17:33:57.471Z,2.51
2023-03-04T17:36:59.643Z,2.47
2023-03-04T17:40:03.295Z,2.46
2023-03-04T17:43:11.303Z,2.45
2023-03-04T17:46:15.031Z,2.41
2023-03-04T17:49:17.129Z,2.36
2023-03-04T17:52:19.264Z,2.33
2023-03-04T17:55:20.963Z,2.32
2023-03-04T17:58:23.811Z,2.29
2023-03-04T18:01:25.524Z,2.26
2023-03-04T18:04:27.220Z,2.24
2023-03-04T18:07:29.408Z,2.23
2023-03-04T18:10:31.162Z,2.22
2023-03-04T18:13:32.712Z,2.23
2023-03-04T18:16:34.399Z,2.23
2023-03-04T18:19:36.053Z,2.22
2023-03-04T18:22:37.661Z,2.21
2023-03-04T18:25:39.705Z,2.21
2023-03-04T18:28:41.567Z,2.23
2023-03-04T18:31:43.340Z,2.23
2023-03-04T18:34:44.913Z,2.25
2023-03-04T18:37:46.848Z,2.23
2023-03-04T18:40:48.440Z,2.24
2023-03-04T18:43:50.031Z,2.23
2023-03-04T18:46:55.917Z,2.21
2023-03-04T18:49:57.504Z,2.18
2023-03-04T18:52:59.129Z,2.15
2023-03-04T18:56:25.864Z,2.17
2023-03-04T18:59:42.547Z,2.16
2023-03-04T19:03:00.346Z,2.15
2023-03-04T19:06:02.012Z,2.16
2023-03-04T19:09:05.610Z,2.15
2023-03-04T19:12:07.260Z,2.15
2023-03-04T19:15:10.324Z,2.17
2023-03-04T19:18:11.929Z,2.15
2023-03-04T19:21:13.482Z,2.13
2023-03-04T19:24:15.082Z,2.13
2023-03-04T19:27:16.692Z,2.11
2023-03-04T19:30:18.671Z,2.10
2023-03-04T19:33:20.541Z,2.08
2023-03-04T19:36:22.132Z,2.03
2023-03-04T19:39:23.787Z,2.00
2023-03-04T19:42:25.331Z,1.98
2023-03-04T19:45:27.040Z,1.98
2023-03-04T19:48:28.841Z,1.98
2023-03-04T19:51:32.716Z,1.99
2023-03-04T19:54:34.281Z,1.96
2023-03-04T19:57:36.273Z,1.94
2023-03-04T20:00:38.063Z,1.91
2023-03-04T20:03:39.808Z,1.90
2023-03-04T20:06:44.231Z,1.88
2023-03-04T20:09:45.849Z,1.88
2023-03-04T20:12:47.557Z,1.87
2023-03-04T20:15:49.118Z,1.85
2023-03-04T20:18:50.982Z,1.83
2023-03-04T20:21:52.585Z,1.83
2023-03-04T20:24:54.933Z,1.82
2023-03-04T20:27:57.732Z,1.82
2023-03-04T20:31:12.256Z,1.80
2023-03-04T20:34:14.629Z,1.76
2023-03-04T20:37:16.474Z,1.76
2023-03-04T20:40:18.246Z,1.76
2023-03-04T20:43:19.764Z,1.77
2023-03-04T20:46:27.706Z,1.78
2023-03-04T20:49:29.832Z,1.78
2023-03-04T20:52:31.959Z,1.79
2023-03-04T20:55:33.521Z,1.77
2023-03-04T20:58:35.982Z,1.75
2023-03-04T21:01:42.049Z,1.72
2023-03-04T21:04:44.046Z,1.63
2023-03-04T21:07:45.703Z,1.58
2023-03-04T21:10:50.062Z,1.55
2023-03-04T21:13:57.701Z,1.50
2023-03-04T21:17:01.993Z,1.49
2023-03-04T21:20:04.463Z,1.48
2023-03-04T21:23:06.090Z,1.47
2023-03-04T21:26:07.762Z,1.48
2023-03-04T21:29:09.326Z,1.50
2023-03-04T21:32:23.722Z,1.51
2023-03-04T21:35:25.784Z,1.53
2023-03-04T21:38:27.394Z,1.54
2023-03-04T21:41:31.112Z,1.56
2023-03-04T21:44:48.468Z,1.56
2023-03-04T21:47:51.253Z,1.57
2023-03-04T21:50:54.268Z,1.56
2023-03-04T21:53:56.174Z,1.57
2023-03-04T21:56:57.778Z,1.57
2023-03-04T21:59:59.453Z,1.55
2023-03-04T22:03:01.034Z,1.56
2023-03-04T22:06:10.461Z,1.55
2023-03-04T22:09:12.882Z,1.57
2023-03-04T22:12:15.861Z,1.58
2023-03-04T22:15:18.007Z,1.58
2023-03-04T22:18:19.571Z,1.60
2023-03-04T22:21:21.843Z,1.62
2023-03-04T22:24:23.524Z,1.61
2023-03-04T22:27:25.132Z,1.58
2023-03-04T22:30:26.699Z,1.58
2023-03-04T22:33:29.398Z,1.58
2023-03-04T22:36:33.021Z,1.59
2023-03-04T22:39:34.606Z,1.57
2023-03-04T22:42:36.164Z,1.58
2023-03-04T22:45:37.918Z,1.56
2023-03-04T22:48:40.049Z,1.53
2023-03-04T22:51:43.717Z,1.51
2023-03-04T22:54:45.235Z,1.50
2023-03-04T22:57:47.212Z,1.48
2023-03-04T23:00:48.810Z,1.46
2023-03-04T23:03:50.489Z,1.43
2023-03-04T23:06:52.171Z,1.40
2023-03-04T23:09:53.701Z,1.39
2023-03-04T23:12:55.306Z,1.36
2023-03-04T23:15:56.926Z,1.41
2023-03-04T23:18:59.694Z,1.38
2023-03-04T23:22:02.562Z,1.37
2023-03-04T23:25:04.556Z,1.37
2023-03-04T23:28:06.163Z,1.36
2023-03-04T23:31:07.751Z,1.36
2023-03-04T23:34:09.414Z,1.35
2023-03-04T23:37:10.994Z,1.34
2023-03-04T23:40:13.142Z,1.32
2023-03-04T23:43:14.705Z,1.28
2023-03-04T23:46:16.332Z,1.20
2023-03-04T23:49:18.141Z,1.14
2023-03-04T23:52:19.718Z,1.10
2023-03-04T23:55:21.363Z,1.07
2023-03-04T23:58:22.975Z,1.05
